createdAt,value
2022-11-28T00:01:43.423Z,100991.55
2022-11-28T00:04:12.975Z,100992.56
2022-11-28T00:06:46.031Z,100990.99
2022-11-28T00:09:15.428Z,100993.73
2022-11-28T00:11:46.885Z,100991.99
2022-11-28T00:14:17.879Z,100989.39
2022-11-28T00:16:47.082Z,100986.91
2022-11-28T00:19:16.173Z,100985.15
2022-11-28T00:21:44.809Z,100982.20
2022-11-28T00:24:13.346Z,100976.98
2022-11-28T00:26:42.419Z,100973.70
2022-11-28T00:29:11.772Z,100967.57
2022-11-28T00:31:44.899Z,100964.98
2022-11-28T00:34:15.495Z,100959.30
2022-11-28T00:36:46.604Z,100962.52
2022-11-28T00:39:17.006Z,100961.52
2022-11-28T00:41:45.807Z,100960.52
2022-11-28T00:44:14.493Z,100953.98
2022-11-28T00:46:43.361Z,100952.29
2022-11-28T00:49:12.064Z,100949.67
2022-11-28T00:51:40.729Z,100959.84
2022-11-28T00:54:10.609Z,100951.77
2022-11-28T00:56:40.831Z,100951.77
2022-11-28T00:59:09.477Z,100953.13
2022-11-28T01:01:43.923Z,100952.10
2022-11-28T01:04:16.288Z,100950.95
2022-11-28T01:06:50.790Z,100952.47
2022-11-28T01:09:22.903Z,100950.20
2022-11-28T01:11:53.836Z,100952.98
2022-11-28T01:14:25.807Z,100949.85
2022-11-28T01:16:54.391Z,100945.62
2022-11-28T01:19:22.936Z,100938.84
2022-11-28T01:21:51.541Z,100940.02
2022-11-28T01:24:20.101Z,100938.75
2022-11-28T01:26:48.699Z,100931.80
2022-11-28T01:29:17.212Z,100922.42
2022-11-28T01:31:45.835Z,100920.14
2022-11-28T01:34:14.546Z,100916.52
2022-11-28T01:36:43.081Z,100911.84
2022-11-28T01:39:12.353Z,100906.67
2022-11-28T01:41:41.070Z,100901.44
2022-11-28T01:44:15.794Z,100898.65
2022-11-28T01:46:44.537Z,100895.13
2022-11-28T01:49:19.089Z,100889.34
2022-11-28T01:51:52.712Z,100887.89
2022-11-28T01:54:25.580Z,100888.70
2022-11-28T01:57:02.220Z,100881.75
2022-11-28T01:59:35.862Z,100883.42
2022-11-28T02:02:13.329Z,100882.27
2022-11-28T02:04:42.834Z,100881.45
2022-11-28T02:07:11.773Z,100877.70
2022-11-28T02:09:40.397Z,100873.25
2022-11-28T02:12:20.718Z,100872.07
2022-11-28T02:15:46.609Z,100871.23
2022-11-28T02:18:26.934Z,100864.16
2022-11-28T02:21:25.039Z,100860.34
2022-11-28T02:24:25.578Z,100855.10
2022-11-28T02:27:27.791Z,100851.39
2022-11-28T02:30:11.717Z,100844.75
2022-11-28T02:32:55.584Z,100844.48
2022-11-28T02:35:35.646Z,100840.58
2022-11-28T02:38:23.241Z,100841.66
2022-11-28T02:41:18.991Z,100840.85
2022-11-28T02:44:11.732Z,100841.89
2022-11-28T02:47:02.829Z,100840.52
2022-11-28T02:49:49.608Z,100843.30
2022-11-28T02:52:37.930Z,100842.66
2022-11-28T02:55:08.478Z,100840.79
2022-11-28T02:57:47.685Z,100841.49
2022-11-28T03:00:32.558Z,100837.02
2022-11-28T03:03:19.422Z,100837.70
2022-11-28T03:06:23.121Z,100834.89
2022-11-28T03:09:16.949Z,100834.02
2022-11-28T03:12:04.577Z,100836.27
2022-11-28T03:15:01.940Z,100830.94
2022-11-28T03:17:52.078Z,100829.82
2022-11-28T03:20:34.524Z,100830.80
2022-11-28T03:23:23.548Z,100826.05
2022-11-28T03:26:12.089Z,100821.66
2022-11-28T03:28:51.998Z,100820.15
2022-11-28T03:31:31.933Z,100815.71
2022-11-28T03:34:02.292Z,100814.67
2022-11-28T03:36:47.560Z,100811.99
2022-11-28T03:39:22.140Z,100816.73
2022-11-28T03:42:16.789Z,100812.55
2022-11-28T03:45:06.600Z,100812.84
2022-11-28T03:47:42.289Z,100812.55
2022-11-28T03:50:25.889Z,100811.30
2022-11-28T03:53:03.175Z,100808.11
2022-11-28T03:55:34.284Z,100805.66
2022-11-28T03:58:49.755Z,100807.33
2022-11-28T04:01:48.066Z,100802.21
2022-11-28T04:04:29.318Z,100799.88
2022-11-28T04:07:43.505Z,100799.84
2022-11-28T04:10:31.919Z,100795.92
2022-11-28T04:13:23.964Z,100795.98
2022-11-28T04:16:04.557Z,100795.16
2022-11-28T04:19:09.684Z,100793.53
2022-11-28T04:22:00.228Z,100794.32
2022-11-28T04:24:42.343Z,100793.88
2022-11-28T04:27:16.641Z,100790.56
2022-11-28T04:29:50.001Z,100791.32
2022-11-28T04:32:19.649Z,100786.08
2022-11-28T04:34:55.398Z,100778.64
2022-11-28T04:37:28.042Z,100776.98
2022-11-28T04:39:57.059Z,100775.51
2022-11-28T04:42:53.261Z,100774.23
2022-11-28T04:45:30.413Z,100771.05
2022-11-28T04:47:59.308Z,100772.94
2022-11-28T04:51:01.698Z,100771.59
2022-11-28T04:53:37.902Z,100769.54
2022-11-28T04:56:20.730Z,100773.69
2022-11-28T04:58:51.249Z,100774.08
2022-11-28T05:01:27.295Z,100777.38
2022-11-28T05:03:56.574Z,100773.58
2022-11-28T05:06:32.478Z,100771.16
2022-11-28T05:09:01.170Z,100776.80
2022-11-28T05:11:29.934Z,100777.25
2022-11-28T05:13:58.485Z,100776.90
2022-11-28T05:16:27.196Z,100776.73
2022-11-28T05:18:55.879Z,100776.14
2022-11-28T05:21:24.623Z,100773.13
2022-11-28T05:23:53.952Z,100778.45
2022-11-28T05:26:22.619Z,100781.14
2022-11-28T05:28:52.859Z,100784.16
2022-11-28T05:31:22.032Z,100781.15
2022-11-28T05:33:50.971Z,100784.23
2022-11-28T05:36:19.481Z,100779.48
2022-11-28T05:38:48.749Z,100781.98
2022-11-28T05:41:24.393Z,100777.45
2022-11-28T05:43:53.299Z,100775.48
2022-11-28T05:46:22.109Z,100779.42
2022-11-28T05:48:50.709Z,100779.16
2022-11-28T05:51:19.936Z,100781.30
2022-11-28T05:53:48.561Z,100776.80
2022-11-28T05:56:23.097Z,100772.06
2022-11-28T05:58:54.296Z,100774.19
2022-11-28T06:01:28.557Z,100771.48
2022-11-28T06:04:01.176Z,100766.92
2022-11-28T06:06:33.600Z,100762.80
2022-11-28T06:09:02.904Z,100757.27
2022-11-28T06:11:33.187Z,100757.36
2022-11-28T06:14:03.199Z,100755.59
2022-11-28T06:16:32.858Z,100752.49
2022-11-28T06:19:05.406Z,100748.54
2022-11-28T06:21:34.350Z,100749.51
2022-11-28T06:24:03.017Z,100747.49
2022-11-28T06:26:31.598Z,100746.67
2022-11-28T06:29:00.100Z,100750.97
2022-11-28T06:31:30.412Z,100749.11
2022-11-28T06:33:59.497Z,100745.31
2022-11-28T06:36:30.876Z,100742.64
2022-11-28T06:38:59.521Z,100742.89
2022-11-28T06:41:28.030Z,100743.14
2022-11-28T06:43:57.176Z,100742.73
2022-11-28T06:46:25.893Z,100741.66
2022-11-28T06:48:54.550Z,100743.43
2022-11-28T06:51:23.194Z,100737.28
2022-11-28T06:53:51.816Z,100740.20
2022-11-28T06:56:20.839Z,100735.30
2022-11-28T06:58:58.164Z,100736.13
2022-11-28T07:01:31.434Z,100738.48
2022-11-28T07:04:01.052Z,100738.53
2022-11-28T07:06:29.842Z,100740.80
2022-11-28T07:08:59.614Z,100740.49
2022-11-28T07:11:31.499Z,100744.34
2022-11-28T07:14:02.755Z,100737.92
2022-11-28T07:16:33.553Z,100735.84
2022-11-28T07:19:02.993Z,100735.21
2022-11-28T07:21:32.657Z,100730.95
2022-11-28T07:24:01.234Z,100734.70
2022-11-28T07:26:30.846Z,100732.48
2022-11-28T07:29:00.129Z,100731.55
2022-11-28T07:31:32.356Z,100727.67
2022-11-28T07:34:03.723Z,100729.36
2022-11-28T07:36:32.786Z,100727.29
2022-11-28T07:39:05.048Z,100724.30
2022-11-28T07:41:33.626Z,100728.62
2022-11-28T07:44:04.096Z,100727.96
2022-11-28T07:46:34.334Z,100725.93
2022-11-28T07:49:04.214Z,100724.44
2022-11-28T07:51:34.173Z,100719.85
2022-11-28T07:54:05.118Z,100721.00
2022-11-28T07:57:10.831Z,100720.10
2022-11-28T07:59:26.323Z,100720.93
2022-11-28T08:01:55.003Z,100720.45
2022-11-28T08:04:23.819Z,100717.81
2022-11-28T08:06:52.441Z,100713.34
2022-11-28T08:09:20.953Z,100708.58
2022-11-28T08:11:51.373Z,100708.75
2022-11-28T08:14:20.444Z,100707.71
2022-11-28T08:16:49.660Z,100709.54
2022-11-28T08:19:22.965Z,100711.23
2022-11-28T08:21:53.478Z,100705.66
2022-11-28T08:24:22.275Z,100706.17
2022-11-28T08:26:50.762Z,100701.96
2022-11-28T08:29:19.355Z,100698.86
2022-11-28T08:31:47.842Z,100697.90
2022-11-28T08:34:16.388Z,100695.78
2022-11-28T08:36:45.054Z,100694.85
2022-11-28T08:39:28.801Z,100688.96
2022-11-28T08:41:58.945Z,100687.42
2022-11-28T08:44:30.358Z,100685.55
2022-11-28T08:46:59.182Z,100687.32
2022-11-28T08:49:27.698Z,100682.65
2022-11-28T08:51:56.248Z,100680.91
2022-11-28T08:54:24.821Z,100680.48
2022-11-28T08:56:53.401Z,100676.05
2022-11-28T08:59:22.041Z,100674.00
2022-11-28T09:01:54.000Z,100671.40
2022-11-28T09:04:24.010Z,100666.86
2022-11-28T09:06:52.764Z,100666.77
2022-11-28T09:09:21.951Z,100661.52
2022-11-28T09:11:50.569Z,100655.54
2022-11-28T09:14:19.132Z,100654.04
2022-11-28T09:16:48.535Z,100654.53
2022-11-28T09:19:17.111Z,100653.59
2022-11-28T09:21:49.314Z,100656.26
2022-11-28T09:24:19.437Z,100653.05
2022-11-28T09:26:48.108Z,100651.02
2022-11-28T09:29:16.659Z,100649.78
2022-11-28T09:31:47.502Z,100650.77
2022-11-28T09:34:16.563Z,100646.41
2022-11-28T09:36:45.127Z,100644.70
2022-11-28T09:39:13.676Z,100640.12
2022-11-28T09:42:10.723Z,100632.16
2022-11-28T09:45:10.228Z,100627.58
2022-11-28T09:47:43.384Z,100627.40
2022-11-28T09:50:36.287Z,100623.82
2022-11-28T09:53:37.563Z,100617.78
2022-11-28T09:56:14.582Z,100613.15
2022-11-28T09:58:50.043Z,100610.20
2022-11-28T10:01:18.459Z,100604.90
2022-11-28T10:04:21.105Z,100602.86
2022-11-28T10:07:06.985Z,100599.75
2022-11-28T10:10:00.152Z,100600.85
2022-11-28T10:13:05.105Z,100593.53
2022-11-28T10:15:48.855Z,100594.31
2022-11-28T10:18:56.499Z,100590.36
2022-11-28T10:21:37.455Z,100584.14
2022-11-28T10:24:35.341Z,100585.66
2022-11-28T10:27:06.144Z,100584.40
2022-11-28T10:29:50.643Z,100580.19
2022-11-28T10:32:34.952Z,100571.76
2022-11-28T10:35:33.337Z,100569.67
2022-11-28T10:38:02.274Z,100570.02
2022-11-28T10:41:02.990Z,100568.88
2022-11-28T10:44:02.898Z,100565.14
2022-11-28T10:47:10.285Z,100562.33
2022-11-28T10:50:06.753Z,100555.38
2022-11-28T10:52:50.327Z,100549.23
2022-11-28T10:55:53.254Z,100546.38
2022-11-28T10:58:31.112Z,100545.61
2022-11-28T11:01:00.464Z,100545.25
2022-11-28T11:03:34.149Z,100541.84
2022-11-28T11:06:03.087Z,100544.95
2022-11-28T11:08:40.358Z,100543.18
2022-11-28T11:11:27.835Z,100537.59
2022-11-28T11:14:08.928Z,100532.85
2022-11-28T11:16:49.290Z,100536.98
2022-11-28T11:19:32.553Z,100537.48
2022-11-28T11:22:12.830Z,100531.16
2022-11-28T11:24:41.450Z,100526.03
2022-11-28T11:27:22.909Z,100524.89
2022-11-28T11:29:52.230Z,100523.42
2022-11-28T11:32:29.640Z,100520.25
2022-11-28T11:34:59.370Z,100518.80
2022-11-28T11:37:37.598Z,100519.30
2022-11-28T11:40:41.620Z,100517.28
2022-11-28T11:43:31.926Z,100516.14
2022-11-28T11:46:11.928Z,100512.80
2022-11-28T11:48:43.948Z,100508.20
2022-11-28T11:51:28.029Z,100503.30
2022-11-28T11:54:19.363Z,100507.25
2022-11-28T11:57:00.703Z,100502.20
2022-11-28T11:59:46.004Z,100505.09
2022-11-28T12:02:41.264Z,100497.52
2022-11-28T12:05:16.528Z,100495.85
2022-11-28T12:08:11.568Z,100495.23
2022-11-28T12:10:51.599Z,100489.25
2022-11-28T12:13:23.967Z,100485.74
2022-11-28T12:16:31.020Z,100486.71
2022-11-28T12:19:30.388Z,100480.53
2022-11-28T12:22:14.492Z,100479.61
2022-11-28T12:25:36.818Z,100482.02
2022-11-28T12:28:37.767Z,100482.55
2022-11-28T12:31:17.568Z,100481.54
2022-11-28T12:34:21.597Z,100481.93
2022-11-28T12:36:56.725Z,100485.80
2022-11-28T12:39:56.873Z,100483.83
2022-11-28T12:42:43.855Z,100487.07
2022-11-28T12:45:28.748Z,100480.89
2022-11-28T12:49:08.096Z,100480.34
2022-11-28T12:51:52.185Z,100481.33
2022-11-28T12:55:01.825Z,100482.09
2022-11-28T12:58:11.502Z,100481.56
2022-11-28T13:01:24.968Z,100482.04
2022-11-28T13:04:11.479Z,100483.95
2022-11-28T13:07:37.006Z,100480.62
2022-11-28T13:10:27.886Z,100473.83
2022-11-28T13:13:19.564Z,100472.69
2022-11-28T13:16:29.171Z,100468.28
2022-11-28T13:19:47.390Z,100472.30
2022-11-28T13:22:24.568Z,100468.77
2022-11-28T13:25:28.837Z,100468.89
2022-11-28T13:28:18.294Z,100465.80
2022-11-28T13:31:04.564Z,100462.54
2022-11-28T13:34:00.492Z,100462.39
2022-11-28T13:39:55.112Z,100462.89
2022-11-28T13:43:02.503Z,100462.39
2022-11-28T13:51:36.034Z,100459.44
2022-11-28T13:54:22.907Z,100460.75
2022-11-28T13:57:12.844Z,100464.18
2022-11-28T13:59:48.655Z,100456.89
2022-11-28T14:02:41.936Z,100462.67
2022-11-28T14:05:29.077Z,100466.81
2022-11-28T14:07:58.415Z,100465.90
2022-11-28T14:11:08.557Z,100466.19
2022-11-28T14:13:54.452Z,100471.61
2022-11-28T14:17:05.005Z,100465.31
2022-11-28T14:19:57.990Z,100462.53
2022-11-28T14:22:55.335Z,100464.45
2022-11-28T14:25:31.732Z,100466.98
2022-11-28T14:28:07.203Z,100462.63
2022-11-28T14:30:41.396Z,100466.14
2022-11-28T14:33:40.060Z,100466.60
2022-11-28T14:36:41.923Z,100467.26
2022-11-28T14:39:13.623Z,100463.89
2022-11-28T14:42:06.898Z,100468.65
2022-11-28T14:44:57.266Z,100470.59
2022-11-28T14:47:35.145Z,100469.52
2022-11-28T14:50:09.918Z,100472.42
2022-11-28T14:52:43.554Z,100472.52
2022-11-28T14:55:12.200Z,100474.63
2022-11-28T14:58:05.341Z,100476.76
2022-11-28T15:00:56.379Z,100475.41
2022-11-28T15:03:45.715Z,100479.86
2022-11-28T15:06:22.260Z,100484.38
2022-11-28T15:09:09.556Z,100482.08
2022-11-28T15:12:00.369Z,100484.95
2022-11-28T15:14:32.316Z,100484.01
2022-11-28T15:17:05.487Z,100487.98
2022-11-28T15:19:45.853Z,100486.87
2022-11-28T15:22:32.646Z,100487.95
2022-11-28T15:25:01.330Z,100484.27
2022-11-28T15:27:30.008Z,100483.65
2022-11-28T15:30:01.727Z,100486.45
2022-11-28T15:32:31.977Z,100485.67
2022-11-28T15:35:09.190Z,100484.52
2022-11-28T15:37:53.057Z,100484.33
2022-11-28T15:40:32.535Z,100485.23
2022-11-28T15:43:09.387Z,100488.90
2022-11-28T15:45:42.884Z,100487.83
2022-11-28T15:48:52.584Z,100490.42
2022-11-28T15:51:36.402Z,100488.73
2022-11-28T15:54:35.596Z,100489.42
2022-11-28T15:57:06.232Z,100489.89
2022-11-28T15:59:35.447Z,100491.30
2022-11-28T16:02:16.506Z,100488.55
2022-11-28T16:04:46.969Z,100487.46
2022-11-28T16:07:16.250Z,100487.54
2022-11-28T16:10:17.362Z,100488.88
2022-11-28T16:12:46.036Z,100489.45
2022-11-28T16:15:22.640Z,100490.38
2022-11-28T16:17:54.150Z,100487.62
2022-11-28T16:20:37.608Z,100495.20
2022-11-28T16:23:37.675Z,100497.02
2022-11-28T16:26:38.550Z,100498.66
2022-11-28T16:29:09.789Z,100493.44
2022-11-28T16:31:39.084Z,100492.88
2022-11-28T16:34:14.983Z,100489.72
2022-11-28T16:36:48.465Z,100490.30
2022-11-28T16:39:18.032Z,100488.15
2022-11-28T16:42:06.253Z,100490.19
2022-11-28T16:44:34.971Z,100487.55
2022-11-28T16:47:03.734Z,100486.70
2022-11-28T16:49:38.012Z,100490.36
2022-11-28T16:52:21.760Z,100493.47
2022-11-28T16:54:54.286Z,100492.92
2022-11-28T16:57:26.553Z,100491.41
2022-11-28T16:59:58.752Z,100488.52
2022-11-28T17:02:27.466Z,100489.96
2022-11-28T17:04:56.157Z,100489.52
2022-11-28T17:07:25.441Z,100487.61
2022-11-28T17:09:53.971Z,100486.06
2022-11-28T17:12:34.748Z,100486.89
2022-11-28T17:15:03.838Z,100493.48
2022-11-28T17:17:36.559Z,100493.58
2022-11-28T17:20:06.625Z,100494.27
2022-11-28T17:22:41.543Z,100492.67
2022-11-28T17:25:21.267Z,100490.13
2022-11-28T17:27:49.828Z,100495.39
2022-11-28T17:30:19.957Z,100497.63
2022-11-28T17:32:48.627Z,100501.61
2022-11-28T17:35:24.352Z,100501.50
2022-11-28T17:37:53.059Z,100507.28
2022-11-28T17:40:33.915Z,100499.83
2022-11-28T17:43:03.913Z,100499.42
2022-11-28T17:45:35.587Z,100500.34
2022-11-28T17:48:04.380Z,100495.90
2022-11-28T17:50:32.937Z,100500.42
2022-11-28T17:53:01.621Z,100497.62
2022-11-28T17:55:30.205Z,100495.55
2022-11-28T17:57:59.310Z,100494.43
2022-11-28T18:00:29.337Z,100495.20
2022-11-28T18:02:57.984Z,100499.39
2022-11-28T18:05:27.195Z,100501.61
2022-11-28T18:07:55.826Z,100508.11
2022-11-28T18:10:24.473Z,100510.33
2022-11-28T18:12:53.406Z,100504.41
2022-11-28T18:15:21.929Z,100504.39
2022-11-28T18:17:50.497Z,100499.77
2022-11-28T18:20:20.203Z,100499.61
2022-11-28T18:22:48.806Z,100497.73
2022-11-28T18:25:17.518Z,100496.87
2022-11-28T18:27:46.096Z,100495.22
2022-11-28T18:30:15.208Z,100498.28
2022-11-28T18:32:43.973Z,100498.97
2022-11-28T18:35:13.146Z,100497.63
2022-11-28T18:37:41.726Z,100495.96
2022-11-28T18:40:10.744Z,100499.00
2022-11-28T18:42:40.160Z,100494.64
2022-11-28T18:45:11.258Z,100495.82
2022-11-28T18:47:39.891Z,100494.41
2022-11-28T18:50:09.153Z,100497.04
2022-11-28T18:52:37.769Z,100494.66
2022-11-28T18:55:07.287Z,100492.97
2022-11-28T18:57:37.078Z,100487.66
2022-11-28T19:00:06.872Z,100487.70
2022-11-28T19:02:35.511Z,100489.14
2022-11-28T19:05:04.605Z,100485.61
2022-11-28T19:07:33.329Z,100482.25
2022-11-28T19:10:01.934Z,100486.26
2022-11-28T19:12:30.616Z,100488.43
2022-11-28T19:15:02.473Z,100489.04
2022-11-28T19:17:31.384Z,100487.90
2022-11-28T19:19:59.959Z,100486.39
2022-11-28T19:22:28.559Z,100488.02
2022-11-28T19:24:57.167Z,100484.27
2022-11-28T19:27:25.890Z,100484.87
2022-11-28T19:29:54.402Z,100487.33
2022-11-28T19:32:22.946Z,100487.23
2022-11-28T19:34:53.592Z,100486.91
2022-11-28T19:37:22.184Z,100485.94
2022-11-28T19:39:50.733Z,100491.61
2022-11-28T19:42:19.371Z,100489.31
2022-11-28T19:44:47.893Z,100488.15
2022-11-28T19:47:16.483Z,100487.02
2022-11-28T19:49:45.425Z,100490.89
2022-11-28T19:52:14.233Z,100493.67
2022-11-28T19:54:42.845Z,100492.20
2022-11-28T19:57:11.557Z,100494.83
2022-11-28T19:59:40.256Z,100495.27
2022-11-28T20:02:10.114Z,100497.99
2022-11-28T20:04:38.760Z,100498.64
2022-11-28T20:07:07.457Z,100496.86
2022-11-28T20:09:36.055Z,100498.63
2022-11-28T20:12:05.193Z,100497.91
2022-11-28T20:14:33.980Z,100498.59
2022-11-28T20:17:02.712Z,100495.80
2022-11-28T20:19:31.453Z,100494.37
2022-11-28T20:22:01.369Z,100494.45
2022-11-28T20:24:30.320Z,100496.27
2022-11-28T20:26:58.907Z,100498.21
2022-11-28T20:29:28.084Z,100497.40
2022-11-28T20:31:57.434Z,100498.63
2022-11-28T20:34:26.984Z,100497.73
2022-11-28T20:36:55.548Z,100494.84
2022-11-28T20:39:24.161Z,100495.71
2022-11-28T20:41:52.771Z,100486.92
2022-11-28T20:44:21.465Z,100487.61
2022-11-28T20:46:50.117Z,100487.98
2022-11-28T20:49:19.382Z,100493.77
2022-11-28T20:51:48.218Z,100492.83
2022-11-28T20:54:17.381Z,100495.33
2022-11-28T20:57:19.042Z,100497.33
2022-11-28T20:59:36.069Z,100498.20
2022-11-28T21:02:04.708Z,100499.71
2022-11-28T21:04:33.266Z,100506.39
2022-11-28T21:07:01.802Z,100507.66
2022-11-28T21:09:30.273Z,100507.75
2022-11-28T21:11:59.624Z,100509.19
2022-11-28T21:14:29.146Z,100505.82
2022-11-28T21:16:58.858Z,100507.79
2022-11-28T21:19:27.552Z,100502.35
2022-11-28T21:21:56.077Z,100504.44
2022-11-28T21:24:24.722Z,100507.64
2022-11-28T21:26:54.819Z,100508.05
2022-11-28T21:29:24.797Z,100506.92
2022-11-28T21:31:54.023Z,100504.77
2022-11-28T21:34:23.004Z,100504.96
2022-11-28T21:36:51.766Z,100508.30
2022-11-28T21:39:20.939Z,100506.09
2022-11-28T21:41:51.137Z,100508.71
2022-11-28T21:44:20.235Z,100505.25
2022-11-28T21:46:48.874Z,100502.35
2022-11-28T21:49:17.917Z,100498.43
2022-11-28T21:51:46.617Z,100494.69
2022-11-28T21:54:15.371Z,100492.69
2022-11-28T21:56:44.020Z,100490.10
2022-11-28T21:59:12.584Z,100492.55
2022-11-28T22:01:41.352Z,100492.67
2022-11-28T22:04:10.838Z,100493.20
2022-11-28T22:06:40.129Z,100491.70
2022-11-28T22:09:09.967Z,100490.94
2022-11-28T22:11:39.561Z,100492.36
2022-11-28T22:14:08.324Z,100492.62
2022-11-28T22:16:37.246Z,100493.75
2022-11-28T22:19:05.864Z,100491.17
2022-11-28T22:21:54.881Z,100491.13
2022-11-28T22:24:24.886Z,100491.96
2022-11-28T22:26:53.796Z,100493.27
2022-11-28T22:29:22.501Z,100496.30
2022-11-28T22:31:51.138Z,100492.30
2022-11-28T22:34:19.871Z,100495.65
2022-11-28T22:36:48.416Z,100493.84
2022-11-28T22:39:17.009Z,100490.48
2022-11-28T22:41:45.591Z,100493.15
2022-11-28T22:44:14.187Z,100497.23
2022-11-28T22:46:42.775Z,100492.20
2022-11-28T22:49:11.568Z,100493.36
2022-11-28T22:51:40.717Z,100486.87
2022-11-28T22:54:12.795Z,100482.17
2022-11-28T22:56:41.530Z,100487.08
2022-11-28T22:59:15.737Z,100490.45
2022-11-28T23:01:44.422Z,100483.80
2022-11-28T23:04:12.986Z,100485.80
2022-11-28T23:06:41.858Z,100488.47
2022-11-28T23:09:13.627Z,100486.48
2022-11-28T23:11:43.199Z,100486.98
2022-11-28T23:14:15.430Z,100485.27
2022-11-28T23:16:45.292Z,100485.00
2022-11-28T23:19:17.718Z,100491.06
2022-11-28T23:21:49.095Z,100486.63
2022-11-28T23:24:22.000Z,100488.23
2022-11-28T23:26:52.035Z,100487.75
2022-11-28T23:29:21.376Z,100486.25
2022-11-28T23:31:50.106Z,100484.29
2022-11-28T23:34:18.643Z,100487.65
2022-11-28T23:36:47.620Z,100487.66
2022-11-28T23:39:20.475Z,100486.79
2022-11-28T23:41:50.313Z,100482.45
2022-11-28T23:44:19.974Z,100485.09
2022-11-28T23:46:48.876Z,100485.10
2022-11-28T23:49:17.495Z,100484.42
2022-11-28T23:51:46.056Z,100483.05
2022-11-28T23:54:14.858Z,100480.67
2022-11-28T23:56:43.794Z,100482.13
2022-11-28T23:59:13.122Z,100479.52
